»·PEaware :: WSW548 CYVR-KPHX

WSW548 :: CYVR-KPHX

FLIGHT INFORMATION

Flight Status: Arrived
Operator: Unknown
More flights by this operator :: More flights under this callsign
Pilot: Marc M. (20543)
Aircraft: BOEING 737-800
(B738)
More flights by this aircraft type
Origin: CYVR Vancouver Intl
Canada
Destination: KPHX Phoenix Sky Harbor Intl
United States
More flights between these airports :: More routes between these airports
Route: +SEA NEERO BERYL CORKR TENTS BRUSR1
File this flight plan on PilotEdge
Remarks: RMK / SIMBRIEF
Altitude:
(Current/Filed)
35,000ft
Speed:
(Current/Filed)
456kts
Departed: 24-Sep-19 07:39 PM
Arrived: 24-Sep-19 10:13 PM
Distance/Time
Traveled:
1069nm/2:34
Distance/Time
To Go:
Arrived

Flight Plot

Page will automatically refresh every two minutes.

Flight plan parsing failed; only flown route is shown


Map Options




Map Legend


Flown Route
Filed Route
Departure Airport
Arrival Airport
Navaid (VOR, NDB)
Fix

Horizontal Profiles

Position Reports

Time Latitude Longitude Heading Altitude Ground
Speed
24-Sep-19 19:13 49.196800 -123.174746 339 22ft 0kts
24-Sep-19 19:14 49.196800 -123.174746 339 22ft 0kts
24-Sep-19 19:15 49.196800 -123.174746 339 22ft 0kts
24-Sep-19 19:16 49.196800 -123.174746 339 22ft 0kts
24-Sep-19 19:17 49.196800 -123.174746 339 22ft 0kts
24-Sep-19 19:18 49.196800 -123.174746 339 22ft 0kts
24-Sep-19 19:19 49.196800 -123.174746 339 22ft 0kts
24-Sep-19 19:20 49.196800 -123.174746 339 22ft 0kts
24-Sep-19 19:21 49.196800 -123.174746 339 22ft 0kts
24-Sep-19 19:22 49.196800 -123.174746 339 22ft 0kts
24-Sep-19 19:23 49.196800 -123.174746 339 22ft 0kts
24-Sep-19 19:24 49.196800 -123.174746 339 22ft 0kts
24-Sep-19 19:25 49.196800 -123.174746 339 22ft 0kts
24-Sep-19 19:26 49.196800 -123.174746 339 22ft 0kts
24-Sep-19 19:27 49.196800 -123.174746 339 22ft 0kts
24-Sep-19 19:28 49.196800 -123.174746 339 22ft 0kts
24-Sep-19 19:29 49.196529 -123.174665 13 22ft 2kts
24-Sep-19 19:30 49.196249 -123.175074 68 22ft 0kts
24-Sep-19 19:31 49.196249 -123.175074 68 22ft 0kts
24-Sep-19 19:32 49.196250 -123.175071 68 22ft 0kts
24-Sep-19 19:33 49.196254 -123.175053 68 22ft 1kts
24-Sep-19 19:34 49.196805 -123.171057 12 22ft 15kts
24-Sep-19 19:35 49.199279 -123.167907 98 22ft 19kts
24-Sep-19 19:36 49.199056 -123.160698 9 22ft 8kts
24-Sep-19 19:37 49.200591 -123.160803 289 22ft 7kts
24-Sep-19 19:38 49.203186 -123.183034 280 55ft 170kts
24-Sep-19 19:39 49.212306 -123.264607 281 3328ft 205kts
24-Sep-19 19:40 49.223245 -123.360733 270 6010ft 238kts
24-Sep-19 19:41 49.168569 -123.415343 170 8627ft 300kts
24-Sep-19 19:42 49.086031 -123.362735 159 10865ft 355kts
24-Sep-19 19:43 48.988133 -123.298540 160 13070ft 399kts
24-Sep-19 19:44 48.883185 -123.229959 161 15610ft 423kts
24-Sep-19 19:45 48.772001 -123.157112 161 17988ft 445kts
24-Sep-19 19:46 48.656485 -123.081865 161 20305ft 460kts
24-Sep-19 19:47 48.536913 -123.004474 161 22485ft 472kts
24-Sep-19 19:48 48.414866 -122.925917 161 24427ft 483kts
24-Sep-19 19:49 48.289745 -122.845814 161 26091ft 495kts
24-Sep-19 19:50 48.161587 -122.764201 160 27586ft 506kts
24-Sep-19 19:51 48.029789 -122.680715 160 28830ft 520kts
24-Sep-19 19:53 47.929138 -122.617277 160 29776ft 527kts
24-Sep-19 19:54 47.836996 -122.559545 159 31498ft 508kts
24-Sep-19 19:55 47.706866 -122.477950 159 32960ft 507kts
24-Sep-19 19:56 47.577381 -122.397365 159 34321ft 505kts
24-Sep-19 19:57 47.447592 -122.317094 158 35306ft 508kts
24-Sep-19 19:58 47.324438 -122.216585 151 35317ft 504kts
24-Sep-19 19:59 47.202637 -122.112942 151 35318ft 505kts
24-Sep-19 20:00 47.080696 -122.009793 151 35318ft 505kts
24-Sep-19 20:01 46.958991 -121.907311 151 35318ft 505kts
24-Sep-19 20:02 46.837146 -121.805519 151 35318ft 504kts
24-Sep-19 20:03 46.715079 -121.704161 151 35318ft 504kts
24-Sep-19 20:04 46.593318 -121.603686 151 35318ft 499kts
24-Sep-19 20:05 46.473672 -121.505350 150 35318ft 494kts
24-Sep-19 20:06 46.354049 -121.407565 151 35318ft 494kts
24-Sep-19 20:07 46.238503 -121.313598 151 35318ft 494kts
24-Sep-19 20:08 46.118226 -121.216270 151 35319ft 494kts
24-Sep-19 20:09 45.998134 -121.119583 151 35318ft 494kts
24-Sep-19 20:10 45.878188 -121.023497 151 35319ft 494kts
24-Sep-19 20:11 45.757937 -120.927647 151 35318ft 494kts
24-Sep-19 20:11 45.657799 -120.848191 151 35318ft 494kts
24-Sep-19 20:13 45.517650 -120.737536 151 35318ft 494kts
24-Sep-19 20:14 45.397184 -120.642966 151 35291ft 493kts
24-Sep-19 20:14 45.297441 -120.564962 151 35241ft 491kts
24-Sep-19 20:15 45.177690 -120.471743 151 35230ft 491kts
24-Sep-19 20:17 45.037682 -120.363334 151 35230ft 492kts
24-Sep-19 20:17 44.937363 -120.286033 151 35230ft 493kts
24-Sep-19 20:18 44.816864 -120.193589 151 35230ft 493kts
24-Sep-19 20:19 44.696521 -120.101709 151 35230ft 492kts
24-Sep-19 20:20 44.576157 -120.010244 151 35230ft 489kts
24-Sep-19 20:21 44.456596 -119.919820 152 35230ft 488kts
24-Sep-19 20:22 44.337509 -119.830182 152 35230ft 487kts
24-Sep-19 20:23 44.218169 -119.740765 152 35229ft 485kts
24-Sep-19 20:24 44.097783 -119.650991 151 35282ft 494kts
24-Sep-19 20:25 43.977092 -119.561397 152 35289ft 492kts
24-Sep-19 20:26 43.856592 -119.472361 152 35289ft 490kts
24-Sep-19 20:27 43.735747 -119.383483 152 35289ft 490kts
24-Sep-19 20:28 43.615439 -119.295405 152 35289ft 490kts
24-Sep-19 20:29 43.495316 -119.207862 152 35289ft 487kts
24-Sep-19 20:30 43.375562 -119.120982 152 35288ft 487kts
24-Sep-19 20:31 43.255532 -119.034292 152 35289ft 487kts
24-Sep-19 20:32 43.135439 -118.947945 152 35289ft 487kts
24-Sep-19 20:33 43.015181 -118.861864 152 35289ft 487kts
24-Sep-19 20:34 42.895010 -118.776256 151 35289ft 487kts
24-Sep-19 20:35 42.775069 -118.691138 151 35289ft 487kts
24-Sep-19 20:36 42.654499 -118.605965 151 35289ft 487kts
24-Sep-19 20:37 42.534138 -118.521316 151 35289ft 487kts
24-Sep-19 20:38 42.414076 -118.437243 151 35289ft 487kts
24-Sep-19 20:39 42.293201 -118.352968 152 35289ft 487kts
24-Sep-19 20:40 42.172741 -118.269341 152 35289ft 487kts
24-Sep-19 20:41 42.052608 -118.186096 152 35289ft 487kts
24-Sep-19 20:42 41.931790 -118.102987 152 35289ft 487kts
24-Sep-19 20:43 41.813298 -118.015088 142 35289ft 485kts
24-Sep-19 20:44 41.713979 -117.894037 133 35262ft 483kts
24-Sep-19 20:45 41.616748 -117.769240 133 35259ft 484kts
24-Sep-19 20:46 41.519536 -117.645146 133 35259ft 484kts
24-Sep-19 20:47 41.421891 -117.521054 133 35259ft 485kts
24-Sep-19 20:48 41.324080 -117.397619 134 35259ft 485kts
24-Sep-19 20:49 41.226068 -117.274572 134 35259ft 485kts
24-Sep-19 20:50 41.127569 -117.151484 134 35259ft 485kts
24-Sep-19 20:51 41.029215 -117.029117 134 35259ft 485kts
24-Sep-19 20:52 40.930907 -116.907336 134 35260ft 485kts
24-Sep-19 20:53 40.832273 -116.785673 134 35259ft 485kts
24-Sep-19 20:54 40.734253 -116.665331 133 35259ft 477kts
24-Sep-19 20:55 40.636999 -116.546347 133 35259ft 478kts
24-Sep-19 20:56 40.539289 -116.427326 133 35259ft 478kts
24-Sep-19 20:57 40.441743 -116.309004 133 35260ft 478kts
24-Sep-19 20:58 40.344067 -116.191018 134 35259ft 478kts
24-Sep-19 20:59 40.246029 -116.073081 134 35259ft 478kts
24-Sep-19 21:00 40.148085 -115.955742 134 35259ft 478kts
24-Sep-19 21:01 40.049846 -115.838530 134 35259ft 478kts
24-Sep-19 21:02 39.951539 -115.721715 134 35259ft 478kts
24-Sep-19 21:03 39.853080 -115.605193 134 35259ft 478kts
24-Sep-19 21:04 39.755682 -115.490482 133 35304ft 466kts
24-Sep-19 21:05 39.659527 -115.377527 133 35318ft 466kts
24-Sep-19 21:06 39.563185 -115.264840 133 35318ft 466kts
24-Sep-19 21:07 39.466405 -115.152095 133 35318ft 466kts
24-Sep-19 21:08 39.369805 -115.040003 133 35318ft 466kts
24-Sep-19 21:09 39.273360 -114.928523 133 35318ft 466kts
24-Sep-19 21:10 39.176606 -114.817118 133 35318ft 466kts
24-Sep-19 21:11 39.079573 -114.705820 133 35318ft 466kts
24-Sep-19 21:12 38.982541 -114.594952 133 35318ft 466kts
24-Sep-19 21:13 38.885677 -114.484691 133 35318ft 466kts
24-Sep-19 21:14 38.788722 -114.374791 133 35318ft 460kts
24-Sep-19 21:15 38.693428 -114.267101 133 35318ft 457kts
24-Sep-19 21:16 38.598119 -114.159813 133 35318ft 456kts
24-Sep-19 21:17 38.503093 -114.053243 133 35318ft 455kts
24-Sep-19 21:18 38.407711 -113.946661 133 35318ft 455kts
24-Sep-19 21:19 38.312123 -113.840239 133 35318ft 455kts
24-Sep-19 21:20 38.216686 -113.734365 133 35318ft 455kts
24-Sep-19 21:21 38.121375 -113.628821 133 35318ft 454kts
24-Sep-19 21:22 38.025817 -113.523496 133 35317ft 455kts
24-Sep-19 21:23 37.930119 -113.418877 135 35317ft 456kts
24-Sep-19 21:24 37.818066 -113.339335 150 35299ft 466kts
24-Sep-19 21:25 37.700142 -113.274718 149 35238ft 460kts
24-Sep-19 21:26 37.582503 -113.210031 149 35230ft 460kts
24-Sep-19 21:27 37.465471 -113.145406 149 35230ft 460kts
24-Sep-19 21:28 37.348136 -113.080945 149 35230ft 460kts
24-Sep-19 21:29 37.230601 -113.016626 149 35230ft 460kts
24-Sep-19 21:30 37.113226 -112.952621 149 35230ft 460kts
24-Sep-19 21:31 36.995920 -112.888872 149 35230ft 460kts
24-Sep-19 21:32 36.878404 -112.825222 149 35230ft 460kts
24-Sep-19 21:33 36.760830 -112.761754 150 35230ft 460kts
24-Sep-19 21:34 36.643883 -112.698755 150 35223ft 456kts
24-Sep-19 21:35 36.528963 -112.637154 151 35175ft 449kts
24-Sep-19 21:36 36.414414 -112.575957 151 35171ft 449kts
24-Sep-19 21:37 36.299325 -112.514491 151 35170ft 449kts
24-Sep-19 21:38 36.184565 -112.453594 151 34856ft 449kts
24-Sep-19 21:39 36.066839 -112.405614 170 33853ft 452kts
24-Sep-19 21:40 35.939086 -112.412671 180 32858ft 475kts
24-Sep-19 21:41 35.808495 -112.424364 180 31169ft 460kts
24-Sep-19 21:42 35.683053 -112.435372 180 29280ft 440kts
24-Sep-19 21:43 35.558301 -112.446194 181 29173ft 466kts
24-Sep-19 21:44 35.428331 -112.439831 168 29178ft 465kts
24-Sep-19 21:45 35.301317 -112.414413 168 29248ft 463kts
24-Sep-19 21:46 35.174030 -112.389236 167 29073ft 463kts
24-Sep-19 21:47 35.048017 -112.361676 168 27314ft 454kts
24-Sep-19 21:48 34.925336 -112.335128 168 25663ft 437kts
24-Sep-19 21:49 34.813934 -112.310864 168 24356ft 380kts
24-Sep-19 21:50 34.712628 -112.288536 168 22825ft 367kts
24-Sep-19 21:51 34.612335 -112.266518 168 21478ft 360kts
24-Sep-19 21:52 34.515124 -112.245256 168 20175ft 351kts
24-Sep-19 21:53 34.419846 -112.223618 166 18862ft 344kts
24-Sep-19 21:54 34.326935 -112.199275 166 17433ft 339kts
24-Sep-19 21:55 34.236764 -112.175910 166 16136ft 327kts
24-Sep-19 21:56 34.148547 -112.153152 166 14727ft 321kts
24-Sep-19 21:57 34.062974 -112.139234 182 13743ft 306kts
24-Sep-19 21:58 34.005811 -112.145811 184 12935ft 302kts
24-Sep-19 21:59 33.922145 -112.155406 184 11672ft 299kts
24-Sep-19 22:00 33.842376 -112.170771 189 10791ft 285kts
24-Sep-19 22:01 33.766089 -112.187168 188 9945ft 270kts
24-Sep-19 22:02 33.695914 -112.201998 187 9526ft 235kts
24-Sep-19 22:03 33.632881 -112.215303 186 8147ft 228kts
24-Sep-19 22:04 33.571448 -112.228344 186 6928ft 210kts
24-Sep-19 22:05 33.516611 -112.240135 186 5742ft 196kts
24-Sep-19 22:06 33.464681 -112.248413 156 4591ft 168kts
24-Sep-19 22:07 33.441016 -112.204671 97 3966ft 164kts
24-Sep-19 22:08 33.440818 -112.149198 92 3108ft 152kts
24-Sep-19 22:09 33.440825 -112.103008 93 2371ft 131kts
24-Sep-19 22:11 33.440821 -112.059142 92 1713ft 129kts
24-Sep-19 22:12 33.440788 -112.014573 81 1143ft 114kts
24-Sep-19 22:13 33.439725 -112.002605 91 1143ft 13kts
24-Sep-19 22:14 33.438472 -112.000678 179 1143ft 0kts
24-Sep-19 22:15 33.437859 -112.000933 268 1143ft 2kts
24-Sep-19 22:16 33.437858 -112.001155 270 1143ft 0kts
24-Sep-19 22:17 33.437858 -112.001155 270 1143ft 0kts
24-Sep-19 22:18 33.437858 -112.001155 270 1143ft 0kts
24-Sep-19 22:19 33.437858 -112.001155 270 1143ft 0kts
24-Sep-19 22:20 33.437858 -112.001155 270 1143ft 0kts
24-Sep-19 22:21 33.437858 -112.001155 270 1143ft 0kts
24-Sep-19 22:22 33.437858 -112.001155 270 1143ft 0kts
24-Sep-19 22:23 33.437858 -112.001155 270 1143ft 0kts
24-Sep-19 22:24 33.437858 -112.001155 270 1143ft 0kts
24-Sep-19 22:25 33.437858 -112.001155 270 1143ft 0kts
24-Sep-19 22:26 33.437858 -112.001155 270 1143ft 0kts
24-Sep-19 22:27 33.437858 -112.001155 270 1143ft 0kts
24-Sep-19 22:27 33.437858 -112.001155 270 1143ft 0kts

Navigation Log

Ident Type
Flight plan parsing failed, navigation log unavailable